Latest Weather Observations for Camooweal

IDQ60801

Issued at 7:35 pm EST Thursday 17 April 2014 (issued every 30 minutes, with the page automatically refreshed every 10 minutes)

About weather observations | Map of weather stations | Latest weather observations for QLD | Other Formats
Station Details ID: 037010 Name: CAMOOWEAL TOWNSHIP Lat: -19.92 Lon: 138.12 Height: 231.2 m
Data from the previous 72 hours. | See also: Recent months at Camooweal
Date/Time
EST
Temp
°C
App
Temp
°C
Dew
Point
Rel
Hum
%
Delta-T
°C
Wind Press
QNH
hPa
Press
MSL
hPa
Rain
since 9 am
mm
Dir
 
Spd
km/h
Gust
km/h
Spd
kts
Gust
kts
17/07:30pm 29.4 26.7 7.3 25 12.0 S 11 17 6 9 1014.1 - 0.0
17/07:00pm 30.6 27.6 7.7 24 12.6 SSE 13 17 7 9 1013.8 - 0.0
17/06:30pm 32.1 29.1 7.7 22 13.6 SSE 13 19 7 10 1013.5 - 0.0
17/06:00pm 33.3 29.4 7.3 20 14.4 SSE 17 24 9 13 1013.0 1011.7 0.0
17/05:30pm 33.8 30.6 8.4 21 14.4 S 15 24 8 13 1012.6 - 0.0
17/05:00pm 34.5 31.1 7.5 19 15.1 SSE 15 24 8 13 1012.5 - 0.0
17/04:30pm 35.1 31.8 8.0 19 15.3 S 15 20 8 11 1012.5 - 0.0
17/04:00pm 34.8 31.8 9.3 21 14.7 SSE 15 24 8 13 1012.4 - 0.0
17/03:30pm 35.3 32.8 8.2 19 15.4 E 11 32 6 17 1012.7 - 0.0
17/03:00pm 35.3 33.0 8.9 20 15.2 ENE 11 20 6 11 1013.0 1011.7 0.0
17/02:30pm 35.1 33.3 9.5 21 14.8 E 9 26 5 14 1013.2 - 0.0
17/02:00pm 34.9 32.3 9.3 21 14.8 SE 13 24 7 13 1013.4 - 0.0
17/01:30pm 34.2 31.2 9.4 22 14.3 SSE 15 26 8 14 1013.9 - 0.0
17/01:00pm 33.7 30.6 10.3 24 13.6 ESE 17 26 9 14 1014.4 - 0.0
17/12:30pm 32.6 29.8 10.0 25 13.1 ESE 15 26 8 14 1015.0 - 0.0
17/12:00pm 32.5 29.1 10.5 26 12.8 ESE 19 28 10 15 1015.7 1014.4 0.0
17/11:30am 31.6 28.4 9.8 26 12.5 ESE 17 28 9 15 1016.2 - 0.0
17/11:00am 30.5 26.4 8.8 26 12.2 ESE 20 28 11 15 1016.5 - 0.0
17/10:30am 29.0 24.8 7.6 26 11.7 ESE 19 26 10 14 1016.9 - 0.0
17/10:00am 28.0 23.6 7.3 27 11.2 SE 20 28 11 15 1017.1 - 0.0
17/09:30am 26.1 21.5 6.7 29 10.3 SSE 20 24 11 13 1017.0 - 0.0
17/09:00am 24.6 19.9 5.9 30 9.7 SSE 20 28 11 15 1016.8 1015.5 0.0
17/08:30am 23.2 18.5 5.1 31 9.1 S 19 28 10 15 1016.7 - 0.0
17/08:00am 21.4 18.0 5.7 36 7.9 S 13 19 7 10 1016.6 - 0.0
17/07:30am 19.1 16.1 5.9 42 6.6 SSW 11 13 6 7 1016.4 - 0.0
17/07:00am 19.9 16.4 5.5 39 7.2 S 13 17 7 9 1016.2 - 0.0
17/06:30am 20.6 17.0 5.0 36 7.7 S 13 17 7 9 1015.9 - 0.0
17/06:00am 20.6 17.0 5.0 36 7.7 S 13 15 7 8 1015.7 1014.4 0.0
17/05:30am 20.7 17.1 5.1 36 7.7 S 13 17 7 9 1015.2 - 0.0
17/05:00am 21.0 17.0 5.0 35 7.9 S 15 17 8 9 1015.0 - 0.0
17/04:30am 21.6 17.9 4.7 33 8.4 S 13 19 7 10 1014.9 - 0.0
17/04:00am 21.7 18.1 5.2 34 8.3 S 13 15 7 8 1014.7 - 0.0
17/03:30am 21.5 18.3 5.0 34 8.2 S 11 15 6 8 1014.7 - 0.0
17/03:00am 22.0 18.8 5.0 33 8.5 S 11 15 6 8 1014.6 1013.4 0.0
17/02:30am 22.9 19.7 4.9 31 9.0 S 11 15 6 8 1014.7 - 0.0
17/02:00am 24.1 20.1 5.0 29 9.7 S 15 20 8 11 1014.7 - 0.0
17/01:30am 24.9 20.6 5.2 28 10.1 SSE 17 24 9 13 1014.7 - 0.0
17/01:00am 25.3 20.6 5.0 27 10.4 SSE 19 26 10 14 1014.9 - 0.0
17/12:30am 25.7 20.9 4.8 26 10.7 SSE 19 26 10 14 1014.9 - 0.0
17/12:00am 26.3 21.4 5.3 26 10.8 SSE 20 28 11 15 1015.0 1013.8 0.0
 
Date/Time
EST
Temp
°C
App
Temp
°C
Dew
Point
Rel
Hum
%
Delta-T
°C
Wind Press
QNH
hPa
Press
MSL
hPa
Rain
since 9 am
mm
Dir
 
Spd
km/h
Gust
km/h
Spd
kts
Gust
kts
16/11:30pm 26.7 21.4 5.1 25 11.2 SSE 22 32 12 17 1015.0 - 0.0
16/11:00pm 27.2 22.0 5.5 25 11.3 S 22 33 12 18 1014.8 - 0.0
16/10:30pm 27.7 21.8 5.9 25 11.5 S 26 33 14 18 1014.6 - 0.0
16/10:00pm 28.1 22.5 5.6 24 11.8 S 24 33 13 18 1014.5 - 0.0
16/09:30pm 28.5 23.0 6.0 24 11.9 S 24 32 13 17 1014.3 - 0.0
16/09:00pm 28.9 24.3 6.3 24 12.1 S 20 30 11 16 1014.0 1012.7 0.0
16/08:30pm 29.6 24.3 6.9 24 12.3 S 24 32 13 17 1013.7 - 0.0
16/08:00pm 29.7 26.2 8.7 27 11.7 S 17 20 9 11 1013.3 - 0.0
16/07:30pm 30.1 26.9 8.5 26 12.0 S 15 17 8 9 1012.9 - 0.0
16/07:00pm 31.5 27.7 9.1 25 12.7 S 19 26 10 14 1012.5 - 0.0
16/06:30pm 32.0 27.6 8.9 24 13.1 S 22 35 12 19 1012.1 - 0.0
16/06:00pm 33.0 29.0 9.1 23 13.6 SSE 20 26 11 14 1011.8 1010.5 0.0
16/05:30pm 33.8 30.0 9.8 23 13.9 SSE 20 26 11 14 1011.6 - 0.0
16/05:00pm 34.2 30.1 10.1 23 14.0 S 22 28 12 15 1011.5 - 0.0
16/04:30pm 34.3 30.2 10.2 23 14.1 S 22 32 12 17 1011.4 - 0.0
16/04:00pm 34.6 31.2 10.4 23 14.2 SSE 19 30 10 16 1011.3 - 0.0
16/03:30pm 34.8 31.4 10.6 23 14.2 SSE 19 30 10 16 1011.6 - 0.0
16/03:00pm 34.6 31.5 10.4 23 14.2 SSE 17 33 9 18 1011.8 1010.5 0.0
16/02:30pm 34.3 30.8 10.2 23 14.1 SSE 19 28 10 15 1012.2 - 0.0
16/02:00pm 34.1 30.5 10.0 23 14.0 SSE 19 32 10 17 1012.5 - 0.0
16/01:30pm 33.9 30.5 10.5 24 13.7 ESE 19 33 10 18 1012.8 - 0.0
16/01:00pm 33.0 29.6 10.4 25 13.2 SE 19 30 10 16 1013.4 - 0.0
16/12:30pm 32.8 29.7 10.2 25 13.1 SE 17 28 9 15 1014.0 - 0.0
16/12:00pm 32.3 29.2 10.4 26 12.7 ESE 17 26 9 14 1014.5 1013.3 0.0
16/11:30am 30.9 27.5 9.2 26 12.3 SE 17 26 9 14 1015.0 - 0.0
16/11:00am 30.1 26.7 9.1 27 11.8 SSE 17 24 9 13 1015.5 - 0.0
16/10:30am 29.1 25.2 8.7 28 11.4 SE 19 28 10 15 1015.6 - 0.0
16/10:00am 28.3 23.8 8.6 29 10.9 SSE 22 32 12 17 1015.7 - 0.0
16/09:30am 26.8 22.1 7.8 30 10.3 SE 22 32 12 17 1015.7 - 0.0
16/09:00am 25.6 20.8 7.2 31 9.8 SSE 22 30 12 16 1015.5 1014.2 0.0
16/08:30am 24.6 20.2 7.3 33 9.2 SSE 20 26 11 14 1015.2 - 0.0
16/08:00am 23.6 19.4 7.3 35 8.6 S 19 26 10 14 1015.0 - 0.0
16/07:30am 22.6 18.8 7.6 38 7.9 S 17 20 9 11 1014.7 - 0.0
16/07:00am 22.3 18.8 7.3 38 7.8 S 15 19 8 10 1014.6 - 0.0
16/06:30am 22.8 19.3 7.4 37 8.1 S 15 20 8 11 1014.3 - 0.0
16/06:00am 23.3 19.8 7.4 36 8.4 SSE 15 22 8 12 1014.0 1012.7 0.0
16/05:30am 23.7 19.5 7.3 35 8.7 SSE 19 24 10 13 1013.8 - 0.0
16/05:00am 24.0 19.7 7.2 34 8.9 S 19 24 10 13 1013.5 - 0.0
16/04:30am 24.1 20.2 7.3 34 8.9 S 17 24 9 13 1013.3 - 0.0
16/04:00am 24.5 20.1 6.7 32 9.3 S 19 26 10 14 1013.2 - 0.0
16/03:30am 25.0 20.4 6.7 31 9.6 S 20 26 11 14 1013.0 - 0.0
16/03:00am 25.5 20.9 6.7 30 9.9 S 20 30 11 16 1012.9 1011.6 0.0
16/02:30am 25.9 21.4 7.0 30 10.0 SSE 20 28 11 15 1013.2 - 0.0
16/02:00am 26.3 21.8 6.9 29 10.3 SSE 20 28 11 15 1013.5 - 0.0
16/01:30am 26.9 22.4 6.9 28 10.7 SSE 20 26 11 14 1013.7 - 0.0
16/01:00am 27.3 22.7 6.7 27 11.0 SSE 20 28 11 15 1013.9 - 0.0
16/12:30am 27.0 22.8 7.5 29 10.5 SSE 19 26 10 14 1013.9 - 0.0
16/12:00am 27.0 22.6 7.5 29 10.5 S 20 30 11 16 1014.0 1012.7 0.0
 
Date/Time
EST
Temp
°C
App
Temp
°C
Dew
Point
Rel
Hum
%
Delta-T
°C
Wind Press
QNH
hPa
Press
MSL
hPa
Rain
since 9 am
mm
Dir
 
Spd
km/h
Gust
km/h
Spd
kts
Gust
kts
15/11:30pm 27.4 22.8 8.3 30 10.5 S 22 30 12 16 1014.0 - 0.0
15/11:00pm 27.3 23.4 8.7 31 10.3 S 19 26 10 14 1013.9 - 0.0
15/10:30pm 27.7 23.7 9.0 31 10.4 S 20 28 11 15 1013.8 - 0.0
15/10:00pm 28.3 24.4 9.6 31 10.5 S 20 28 11 15 1013.8 - 0.0
15/09:30pm 28.8 24.5 9.5 30 10.9 S 22 33 12 18 1013.6 - 0.0
15/09:00pm 28.9 25.4 10.1 31 10.7 S 19 28 10 15 1013.3 1012.0 0.0
15/08:30pm 29.7 26.2 10.3 30 11.1 S 19 28 10 15 1012.9 - 0.0
15/08:00pm 30.4 26.9 10.9 30 11.3 S 20 28 11 15 1012.4 - 0.0
15/07:30pm 30.8 27.6 11.2 30 11.4 S 19 26 10 14 1011.9 - 0.0
15/07:00pm 31.2 28.5 11.6 30 11.5 S 17 22 9 12 1011.4 - 0.0
15/06:30pm 32.0 28.8 11.2 28 12.2 S 19 26 10 14 1011.1 - 0.0
15/06:00pm 32.9 30.1 11.4 27 12.7 SSE 17 24 9 13 1010.7 1009.5 0.0
15/05:30pm 33.6 30.4 12.0 27 12.9 S 20 30 11 16 1010.7 - 0.0
15/05:00pm 33.9 31.4 12.3 27 13.0 SSE 17 30 9 16 1010.6 - 0.0
15/04:30pm 34.0 31.1 12.4 27 13.0 S 19 30 10 16 1010.6 - 0.0
15/04:00pm 33.8 30.9 12.2 27 13.0 SSW 19 32 10 17 1010.6 - 0.0
15/03:30pm 34.1 31.1 11.9 26 13.3 SSE 19 28 10 15 1010.9 - 0.0
15/03:00pm 34.0 31.5 12.4 27 13.0 ESE 17 24 9 13 1011.1 1009.8 0.0
15/02:30pm 33.5 31.1 11.4 26 13.1 SE 15 24 8 13 1011.4 - 0.0
15/02:00pm 33.5 30.7 12.5 28 12.6 SSE 19 28 10 15 1011.8 - 0.0
15/01:30pm 33.3 30.1 11.8 27 12.8 SSE 20 30 11 16 1012.1 - 0.0
15/01:00pm 32.4 29.1 11.6 28 12.3 SSE 20 30 11 16 1012.7 - 0.0
15/12:30pm 32.2 28.5 11.4 28 12.3 SSE 22 32 12 17 1013.1 - 0.0
15/12:00pm 31.3 27.7 10.6 28 12.0 SSE 20 30 11 16 1013.6 1012.3 0.0
15/11:30am 30.3 26.3 10.3 29 11.5 S 22 33 12 18 1013.9 - 0.0
15/11:00am 29.3 25.0 9.4 29 11.2 S 22 30 12 16 1014.3 - 0.0
15/10:30am 28.2 23.4 9.0 30 10.7 SSE 24 32 13 17 1014.5 - 0.0
15/10:00am 26.7 20.8 7.7 30 10.3 S 28 35 15 19 1014.6 - 0.0
15/09:30am 26.3 20.6 8.3 32 9.8 SSE 28 35 15 19 1014.7 - 0.0
15/09:00am 25.2 19.4 7.8 33 9.3 S 28 35 15 19 1014.7 1013.5 0.0
15/08:30am 23.8 18.4 7.8 36 8.5 S 26 35 14 19 1014.5 - 0.0
15/08:00am 23.1 18.0 7.6 37 8.2 S 24 32 13 17 1014.1 - 0.0
15/07:30am 22.4 18.3 7.8 39 7.7 S 19 28 10 15 1013.7 - 0.0
15/07:00am 22.5 18.2 7.9 39 7.7 S 20 30 11 16 1013.3 - 0.0
15/06:30am 22.9 18.1 7.4 37 8.2 S 22 30 12 16 1013.0 - 0.0
15/06:00am 23.4 18.4 7.9 37 8.3 S 24 30 13 16 1012.7 1011.4 0.0
15/05:30am 23.7 19.7 8.2 37 8.3 S 19 26 10 14 1012.6 - 0.0
15/05:00am 24.4 20.1 8.0 35 8.8 S 20 32 11 17 1012.6 - 0.0
15/04:30am 24.7 20.5 8.2 35 8.9 S 20 28 11 15 1012.4 - 0.0
15/04:00am 24.9 20.7 8.4 35 8.9 S 20 32 11 17 1012.3 - 0.0
15/03:30am 25.4 21.1 9.3 36 8.9 S 22 30 12 16 1012.2 - 0.0
15/03:00am 25.1 21.6 10.2 39 8.3 S 19 24 10 13 1012.1 1010.8 0.0
15/02:30am 25.5 22.1 10.5 39 8.5 S 19 26 10 14 1012.1 - 0.0
15/02:00am 26.1 22.4 10.3 37 8.9 S 20 32 11 17 1012.2 - 0.0
15/01:30am 26.5 23.1 10.6 37 9.0 S 19 28 10 15 1012.5 - 0.0
15/01:00am 27.0 22.9 10.2 35 9.5 S 22 30 12 16 1012.5 - 0.0
15/12:30am 27.5 23.6 10.7 35 9.6 S 22 32 12 17 1012.6 - 0.0
15/12:00am 27.7 23.1 10.9 35 9.6 S 26 37 14 20 1012.6 1011.3 0.0
 
Date/Time
EST
Temp
°C
App
Temp
°C
Dew
Point
Rel
Hum
%
Delta-T
°C
Wind Press
QNH
hPa
Press
MSL
hPa
Rain
since 9 am
mm
Dir
 
Spd
km/h
Gust
km/h
Spd
kts
Gust
kts
14/11:30pm 27.8 23.5 10.9 35 9.7 S 24 33 13 18 1012.8 - 0.0
14/11:00pm 28.0 23.8 11.1 35 9.7 S 24 32 13 17 1012.8 - 0.0
14/10:30pm 27.9 24.6 11.5 36 9.5 S 20 28 11 15 1012.6 - 0.0
14/10:00pm 27.6 25.4 12.0 38 9.1 S 15 20 8 11 1012.4 - 0.0
14/09:30pm 28.3 25.6 11.8 36 9.6 S 17 22 9 12 1012.1 - 0.0
14/09:00pm 29.3 26.6 11.8 34 10.3 S 17 22 9 12 1011.7 1010.4 0.0
14/08:30pm 29.8 27.1 11.8 33 10.6 S 17 26 9 14 1011.3 - 0.0
14/08:00pm 29.4 27.9 11.9 34 10.3 S 11 13 6 7 1010.7 - 0.0

Other Formats:

Comma delimited format used in spreadsheet applications
http://www.bom.gov.au/fwo/IDQ60801/IDQ60801.94255.axf

JavaScript Object Notation format (JSON) in row-major order
http://www.bom.gov.au/fwo/IDQ60801/IDQ60801.94255.json